createdAt,value
2023-05-22T00:02:24.256Z,101298.59
2023-05-22T00:07:27.873Z,101292.19
2023-05-22T00:12:30.626Z,101289.97
2023-05-22T00:17:34.559Z,101292.94
2023-05-22T00:22:37.796Z,101296.50
2023-05-22T00:27:40.540Z,101296.72
2023-05-22T00:32:43.360Z,101293.19
2023-05-22T00:37:47.044Z,101287.97
2023-05-22T00:42:50.095Z,101278.41
2023-05-22T00:47:52.974Z,101288.25
2023-05-22T00:52:56.052Z,101279.06
2023-05-22T00:57:59.663Z,101263.91
2023-05-22T01:03:08.171Z,101281.81
2023-05-22T01:08:11.395Z,101278.25
2023-05-22T01:13:30.293Z,101280.78
2023-05-22T01:18:55.400Z,101274.31
2023-05-22T01:24:19.837Z,101279.13
2023-05-22T01:29:59.959Z,101275.19
2023-05-22T01:35:11.171Z,101278.34
2023-05-22T01:40:14.305Z,101263.53
2023-05-22T01:45:17.181Z,101262.69
2023-05-22T01:50:21.477Z,101262.91
2023-05-22T01:56:01.303Z,101266.09
2023-05-22T02:01:05.842Z,101275.22
2023-05-22T02:06:13.923Z,101266.22
2023-05-22T02:11:17.726Z,101273.00
2023-05-22T02:16:22.496Z,101263.69
2023-05-22T02:21:25.570Z,101276.19
2023-05-22T02:26:29.146Z,101273.31
2023-05-22T02:31:32.510Z,101263.31
2023-05-22T02:36:35.391Z,101273.72
2023-05-22T02:41:38.315Z,101273.28
2023-05-22T02:46:41.483Z,101257.69
2023-05-22T02:51:47.985Z,101263.03
2023-05-22T02:56:51.076Z,101278.38
2023-05-22T03:01:54.759Z,101270.69
2023-05-22T03:06:59.656Z,101272.25
2023-05-22T03:12:05.361Z,101277.63
2023-05-22T03:17:08.700Z,101271.13
2023-05-22T03:22:11.797Z,101268.34
2023-05-22T03:27:19.990Z,101267.84
2023-05-22T03:32:24.665Z,101264.41
2023-05-22T03:37:27.842Z,101253.94
2023-05-22T03:42:30.714Z,101248.09
2023-05-22T03:47:33.818Z,101250.56
2023-05-22T03:52:38.802Z,101245.75
2023-05-22T03:57:41.669Z,101230.16
2023-05-22T04:02:45.534Z,101250.75
2023-05-22T04:07:48.873Z,101242.63
2023-05-22T04:12:51.904Z,101246.97
2023-05-22T04:17:55.391Z,101240.50
2023-05-22T04:22:58.320Z,101239.81
2023-05-22T04:28:04.331Z,101229.22
2023-05-22T04:33:07.107Z,101232.31
2023-05-22T04:38:10.010Z,101236.47
2023-05-22T04:43:13.108Z,101237.13
2023-05-22T04:48:15.881Z,101246.25
2023-05-22T04:53:18.682Z,101245.41
2023-05-22T04:58:22.115Z,101235.59
2023-05-22T05:03:28.867Z,101245.75
2023-05-22T05:08:31.494Z,101258.47
2023-05-22T05:13:35.199Z,101248.69
2023-05-22T05:18:38.405Z,101249.84
2023-05-22T05:23:41.994Z,101251.34
2023-05-22T05:28:44.848Z,101256.84
2023-05-22T05:33:48.322Z,101246.09
2023-05-22T05:39:03.341Z,101228.44
2023-05-22T05:44:09.457Z,101241.28
2023-05-22T05:49:12.739Z,101240.50
2023-05-22T05:54:16.980Z,101233.13
2023-05-22T05:59:21.389Z,101235.66
2023-05-22T06:04:34.068Z,101234.78
2023-05-22T06:09:37.755Z,101242.94
2023-05-22T06:14:51.275Z,101241.13
2023-05-22T06:19:54.169Z,101239.38
2023-05-22T06:24:57.245Z,101238.03
2023-05-22T06:30:04.748Z,101233.63
2023-05-22T06:35:13.072Z,101242.78
2023-05-22T06:40:17.692Z,101240.38
2023-05-22T06:45:30.366Z,101229.69
2023-05-22T06:50:51.573Z,101232.16
2023-05-22T06:55:54.524Z,101220.72
2023-05-22T07:01:08.178Z,101222.78
2023-05-22T07:06:17.138Z,101226.53
2023-05-22T07:11:21.285Z,101227.25
2023-05-22T07:16:25.927Z,101211.66
2023-05-22T07:21:32.469Z,101216.13
2023-05-22T07:26:38.947Z,101221.56
2023-05-22T07:31:46.468Z,101215.88
2023-05-22T07:36:49.990Z,101205.28
2023-05-22T07:41:54.585Z,101205.59
2023-05-22T07:46:59.848Z,101218.69
2023-05-22T07:52:05.049Z,101214.25
2023-05-22T07:57:08.427Z,101212.50
2023-05-22T08:02:15.363Z,101207.03
2023-05-22T08:07:18.147Z,101207.47
2023-05-22T08:12:21.055Z,101211.41
2023-05-22T08:17:23.978Z,101219.09
2023-05-22T08:22:26.908Z,101221.56
2023-05-22T08:27:29.600Z,101208.75
2023-05-22T08:32:32.430Z,101209.72
2023-05-22T08:37:35.470Z,101215.06
2023-05-22T08:42:38.988Z,101213.63
2023-05-22T08:47:44.772Z,101209.69
2023-05-22T08:52:53.265Z,101208.03
2023-05-22T08:57:57.937Z,101214.22
2023-05-22T09:03:00.964Z,101210.94
2023-05-22T09:08:16.166Z,101198.41
2023-05-22T09:13:31.068Z,101200.25
2023-05-22T09:18:33.918Z,101200.44
2023-05-22T09:23:36.939Z,101194.00
2023-05-22T09:28:39.935Z,101198.06
2023-05-22T09:33:45.343Z,101197.97
2023-05-22T09:38:48.388Z,101199.41
2023-05-22T09:43:51.653Z,101195.91
2023-05-22T09:48:55.121Z,101197.06
2023-05-22T09:54:04.157Z,101195.50
2023-05-22T09:59:09.908Z,101198.56
2023-05-22T10:04:17.006Z,101201.13
2023-05-22T10:09:24.088Z,101202.06
2023-05-22T10:14:28.803Z,101186.84
2023-05-22T10:19:33.668Z,101200.66
2023-05-22T10:24:37.605Z,101204.59
2023-05-22T10:30:17.429Z,101200.84
2023-05-22T10:35:40.369Z,101196.94
2023-05-22T10:40:47.311Z,101196.22
2023-05-22T10:45:50.484Z,101193.50
2023-05-22T10:50:53.813Z,101197.84
2023-05-22T10:55:57.759Z,101187.34
2023-05-22T11:01:19.291Z,101184.19
2023-05-22T11:06:36.562Z,101188.66
2023-05-22T11:11:39.839Z,101183.44
2023-05-22T11:16:43.378Z,101187.56
2023-05-22T11:21:47.855Z,101193.00
2023-05-22T11:27:07.156Z,101183.25
2023-05-22T11:32:10.677Z,101202.94
2023-05-22T11:37:13.784Z,101200.66
2023-05-22T11:42:19.068Z,101196.84
2023-05-22T11:47:22.556Z,101199.47
2023-05-22T11:52:25.446Z,101201.09
2023-05-22T11:57:28.679Z,101206.00
2023-05-22T12:02:31.733Z,101214.91
2023-05-22T12:07:34.750Z,101209.19
2023-05-22T12:12:39.990Z,101211.19
2023-05-22T12:17:43.717Z,101197.22
2023-05-22T12:22:52.729Z,101203.56
2023-05-22T12:28:27.408Z,101203.13
2023-05-22T12:33:31.652Z,101200.06
2023-05-22T12:38:35.615Z,101208.28
2023-05-22T12:43:38.717Z,101209.63
2023-05-22T12:48:41.757Z,101205.09
2023-05-22T12:53:46.876Z,101211.75
2023-05-22T12:58:50.058Z,101217.09
2023-05-22T13:03:53.387Z,101206.63
2023-05-22T13:08:56.282Z,101209.47
2023-05-22T13:13:58.981Z,101212.63
2023-05-22T13:19:02.094Z,101196.66
2023-05-22T13:24:04.745Z,101192.88
2023-05-22T13:29:07.790Z,101205.75
2023-05-22T13:34:11.714Z,101208.53
2023-05-22T13:39:15.935Z,101203.75
2023-05-22T13:44:21.349Z,101194.88
2023-05-22T13:49:25.375Z,101213.38
2023-05-22T13:54:29.207Z,101223.03
2023-05-22T13:59:32.039Z,101211.81
2023-05-22T14:04:35.082Z,101216.13
2023-05-22T14:09:37.911Z,101214.38
2023-05-22T14:14:40.872Z,101223.22
2023-05-22T14:19:43.902Z,101207.94
2023-05-22T14:24:46.725Z,101230.94
2023-05-22T14:29:49.465Z,101226.16
2023-05-22T14:34:52.860Z,101225.38
2023-05-22T14:39:59.131Z,101223.84
2023-05-22T14:45:05.633Z,101229.91
2023-05-22T14:50:18.872Z,101219.56
2023-05-22T14:55:28.741Z,101223.56
2023-05-22T15:00:34.086Z,101206.66
2023-05-22T15:05:38.056Z,101205.69
2023-05-22T15:10:41.135Z,101227.28
2023-05-22T15:15:43.940Z,101223.31
2023-05-22T15:20:46.994Z,101243.50
2023-05-22T15:25:49.972Z,101241.97
2023-05-22T15:30:53.958Z,101240.34
2023-05-22T15:35:57.934Z,101248.88
2023-05-22T15:41:01.217Z,101245.72
2023-05-22T15:46:04.622Z,101244.28
2023-05-22T15:51:10.688Z,101241.41
2023-05-22T15:56:15.134Z,101248.31
2023-05-22T16:01:18.803Z,101244.59
2023-05-22T16:06:23.899Z,101258.59
2023-05-22T16:11:28.129Z,101250.88
2023-05-22T16:16:32.216Z,101255.47
2023-05-22T16:21:35.366Z,101252.78
2023-05-22T16:26:39.809Z,101250.53
2023-05-22T16:31:43.233Z,101261.97
2023-05-22T16:36:47.160Z,101257.00
2023-05-22T16:41:53.891Z,101250.97
2023-05-22T16:46:58.852Z,101255.09
2023-05-22T16:52:04.484Z,101257.16
2023-05-22T16:57:09.941Z,101256.28
2023-05-22T17:02:13.988Z,101249.66
2023-05-22T17:07:17.556Z,101260.72
2023-05-22T17:12:20.856Z,101248.38
2023-05-22T17:17:23.780Z,101255.88
2023-05-22T17:22:26.782Z,101260.28
2023-05-22T17:27:36.170Z,101274.03
2023-05-22T17:32:39.853Z,101273.03
2023-05-22T17:37:42.859Z,101270.53
2023-05-22T17:42:46.965Z,101266.56
2023-05-22T17:47:52.720Z,101259.66
2023-05-22T17:52:56.648Z,101254.44
2023-05-22T17:58:00.043Z,101252.38
2023-05-22T18:03:03.012Z,101255.47
2023-05-22T18:08:06.149Z,101250.50
2023-05-22T18:13:09.618Z,101221.81
2023-05-22T18:18:13.355Z,101229.31
2023-05-22T18:23:16.399Z,101220.56
2023-05-22T18:28:26.838Z,101216.78
2023-05-22T18:33:29.564Z,101218.91
2023-05-22T18:38:33.366Z,101213.69
2023-05-22T18:43:36.168Z,101212.66
2023-05-22T18:48:38.937Z,101205.81
2023-05-22T18:53:41.946Z,101207.84
2023-05-22T18:58:45.048Z,101197.69
2023-05-22T19:03:47.849Z,101187.66
2023-05-22T19:08:50.928Z,101189.31
2023-05-22T19:13:54.850Z,101178.69
2023-05-22T19:18:57.508Z,101190.31
2023-05-22T19:24:00.394Z,101186.91
2023-05-22T19:29:03.344Z,101177.13
2023-05-22T19:34:06.190Z,101185.44
2023-05-22T19:39:08.925Z,101188.16
2023-05-22T19:44:11.885Z,101182.94
2023-05-22T19:49:14.532Z,101179.56
2023-05-22T19:54:17.340Z,101175.81
2023-05-22T19:59:20.178Z,101168.13
2023-05-22T20:04:22.879Z,101172.66
2023-05-22T20:09:27.133Z,101171.22
2023-05-22T20:14:29.929Z,101178.75
2023-05-22T20:19:34.727Z,101155.00
2023-05-22T20:24:37.870Z,101153.22
2023-05-22T20:29:40.930Z,101165.97
2023-05-22T20:34:45.338Z,101160.38
2023-05-22T20:39:48.336Z,101156.19
2023-05-22T20:44:52.812Z,101160.97
2023-05-22T20:49:55.685Z,101157.28
2023-05-22T20:54:58.608Z,101158.53
2023-05-22T21:00:01.649Z,101138.41
2023-05-22T21:05:10.533Z,101139.03
2023-05-22T21:10:13.267Z,101133.63
2023-05-22T21:15:16.010Z,101134.28
2023-05-22T21:20:18.759Z,101135.31
2023-05-22T21:25:21.815Z,101136.97
2023-05-22T21:30:24.558Z,101144.47
2023-05-22T21:35:27.296Z,101127.88
2023-05-22T21:40:29.992Z,101141.63
2023-05-22T21:45:32.702Z,101161.53
2023-05-22T21:50:35.870Z,101168.22
2023-05-22T21:55:38.775Z,101167.22
2023-05-22T22:00:42.095Z,101164.56
2023-05-22T22:05:45.078Z,101163.91
2023-05-22T22:10:47.786Z,101161.09
2023-05-22T22:15:50.988Z,101157.78
2023-05-22T22:20:54.236Z,101136.13
2023-05-22T22:25:57.236Z,101126.75
2023-05-22T22:30:59.927Z,101130.13
2023-05-22T22:36:03.442Z,101139.09
2023-05-22T22:41:08.913Z,101145.91
2023-05-22T22:46:11.605Z,101154.88
2023-05-22T22:51:14.789Z,101153.44
2023-05-22T22:56:18.008Z,101142.78
2023-05-22T23:01:20.830Z,101150.28
2023-05-22T23:06:24.151Z,101142.41
2023-05-22T23:11:37.976Z,101143.00
2023-05-22T23:16:41.275Z,101146.16
2023-05-22T23:21:45.094Z,101143.81
2023-05-22T23:26:48.012Z,101125.97
2023-05-22T23:31:51.021Z,101131.19
2023-05-22T23:36:53.834Z,101128.88
2023-05-22T23:41:56.702Z,101128.50
2023-05-22T23:46:59.588Z,101120.38
2023-05-22T23:52:02.537Z,101118.28
2023-05-22T23:57:05.694Z,101113.47
